Time;durP1;ratioP1;P1;durP2;ratioP2;P2;SDS_P1;SDS_P2;PMS_P1;PMS_P2;Temp;Humidity;BMP_temperature;BMP_pressure;BME280_temperature;BME280_humidity;BME280_pressure;Samples;Min_cycle;Max_cycle;Signal;HPM_P1;HPM_P2
2023/10/01 00:00:43;;;;;;;16.33;8.70;;;10.40;99.90;;;;;;5045634;28;20506;-73
2023/10/01 00:03:10;;;;;;;15.53;7.67;;;10.40;99.90;;;;;;5044041;28;20856;-73
2023/10/01 00:05:41;;;;;;;13.20;8.00;;;10.30;99.90;;;;;;5042565;28;20450;-73
2023/10/01 00:08:12;;;;;;;14.27;9.30;;;10.30;99.90;;;;;;5044568;28;20544;-73
2023/10/01 00:10:41;;;;;;;11.87;8.43;;;10.30;99.90;;;;;;5040399;28;20531;-73
2023/10/01 00:13:08;;;;;;;16.20;8.60;;;10.30;99.90;;;;;;5043492;28;20949;-73
2023/10/01 00:15:35;;;;;;;19.17;10.03;;;10.30;99.90;;;;;;5044211;28;20453;-73
2023/10/01 00:18:02;;;;;;;18.73;10.20;;;10.30;99.90;;;;;;5044792;28;20826;-73
2023/10/01 00:20:29;;;;;;;13.80;8.93;;;10.30;99.90;;;;;;5043167;28;20544;-73
2023/10/01 00:22:59;;;;;;;19.70;8.57;;;10.40;99.90;;;;;;5044074;28;20484;-73
2023/10/01 00:25:28;;;;;;;12.27;8.57;;;10.30;99.90;;;;;;5041230;28;20481;-73
2023/10/01 00:27:57;;;;;;;12.97;7.53;;;10.30;99.90;;;;;;5040780;28;21048;-73
2023/10/01 00:30:24;;;;;;;12.43;8.07;;;10.30;99.90;;;;;;5034342;28;20488;-73
2023/10/01 00:32:51;;;;;;;13.53;8.80;;;10.30;99.90;;;;;;5044799;28;20825;-73
2023/10/01 00:35:18;;;;;;;15.00;8.30;;;10.30;99.90;;;;;;5042148;28;20449;-73
2023/10/01 00:37:45;;;;;;;14.90;8.07;;;10.30;99.90;;;;;;5041532;28;20445;-73
2023/10/01 00:40:13;;;;;;;19.87;8.53;;;10.30;99.90;;;;;;5036835;28;20454;-73
2023/10/01 00:42:41;;;;;;;15.30;7.83;;;10.30;99.90;;;;;;5040743;28;20552;-73
2023/10/01 00:45:11;;;;;;;12.97;7.60;;;10.30;99.90;;;;;;5041300;28;20476;-73
2023/10/01 00:47:40;;;;;;;13.03;7.83;;;10.30;99.90;;;;;;5037869;28;20489;-73
2023/10/01 00:50:11;;;;;;;13.87;8.17;;;10.30;99.90;;;;;;5033543;28;20453;-73
2023/10/01 00:52:38;;;;;;;12.30;7.30;;;10.30;99.90;;;;;;5042478;28;20477;-73
2023/10/01 00:55:07;;;;;;;10.87;7.20;;;10.30;99.90;;;;;;5043098;28;20452;-73
2023/10/01 00:57:37;;;;;;;15.50;8.50;;;10.20;99.90;;;;;;5038990;28;20481;-73
2023/10/01 01:00:09;;;;;;;13.80;8.20;;;10.20;99.90;;;;;;5043368;28;20440;-73
2023/10/01 01:02:37;;;;;;;11.20;7.50;;;10.10;99.90;;;;;;5038974;28;20483;-73
2023/10/01 01:05:19;;;;;;;11.73;7.00;;;10.10;99.90;;;;;;5042895;28;20528;-73
2023/10/01 01:07:47;;;;;;;13.10;7.67;;;10.00;99.90;;;;;;5039116;28;20496;-73
2023/10/01 01:10:16;;;;;;;16.20;7.83;;;9.90;99.90;;;;;;5041128;28;20946;-73
2023/10/01 01:12:45;;;;;;;11.90;7.17;;;9.90;99.90;;;;;;5037552;28;20528;-73
2023/10/01 01:15:14;;;;;;;11.70;7.40;;;9.90;99.90;;;;;;5041079;28;20934;-73
2023/10/01 01:17:41;;;;;;;12.20;7.87;;;9.90;99.90;;;;;;5041846;28;20997;-73
2023/10/01 01:20:13;;;;;;;18.20;7.67;;;9.80;99.90;;;;;;5041841;28;20476;-73
2023/10/01 01:22:42;;;;;;;16.17;7.53;;;9.90;99.90;;;;;;5037753;28;21074;-73
2023/10/01 01:25:10;;;;;;;13.57;7.90;;;9.80;99.90;;;;;;5032430;28;20461;-73
2023/10/01 01:27:37;;;;;;;12.23;7.63;;;9.80;99.90;;;;;;5039920;28;20575;-73
2023/10/01 01:30:07;;;;;;;12.23;7.73;;;9.80;99.90;;;;;;5038532;28;20448;-73
2023/10/01 01:32:36;;;;;;;13.13;7.73;;;9.80;99.90;;;;;;5039759;28;20484;-73
2023/10/01 01:35:05;;;;;;;12.73;7.90;;;9.80;99.90;;;;;;5039486;28;20469;-73
2023/10/01 01:37:46;;;;;;;12.97;7.60;;;9.80;99.90;;;;;;5039551;28;20450;-73
2023/10/01 01:40:31;;;;;;;11.67;7.53;;;9.80;99.90;;;;;;5039850;28;20463;-71
2023/10/01 01:43:04;;;;;;;12.30;7.40;;;9.70;99.90;;;;;;5034189;28;21068;-73
2023/10/01 01:45:33;;;;;;;11.97;7.73;;;9.70;99.90;;;;;;5035879;28;20458;-73
2023/10/01 01:48:00;;;;;;;14.23;7.70;;;9.60;99.90;;;;;;5041591;28;21073;-72
2023/10/01 01:50:27;;;;;;;13.03;7.67;;;9.60;99.90;;;;;;5035316;28;20453;-72
2023/10/01 01:52:57;;;;;;;16.70;7.27;;;9.50;99.90;;;;;;5041469;28;20479;-71
2023/10/01 01:55:27;;;;;;;16.53;7.87;;;9.50;99.90;;;;;;5032766;28;20970;-71
2023/10/01 01:58:06;;;;;;;13.03;7.30;;;9.50;99.90;;;;;;5035417;28;20448;-72
2023/10/01 02:00:35;;;;;;;12.87;6.87;;;9.40;99.90;;;;;;5035880;28;20451;-72
2023/10/01 02:03:10;;;;;;;20.80;7.10;;;9.40;99.90;;;;;;5040379;28;20480;-73
2023/10/01 02:05:38;;;;;;;13.50;6.77;;;9.30;99.90;;;;;;5038188;28;21008;-71
2023/10/01 02:08:09;;;;;;;15.20;7.07;;;9.30;99.90;;;;;;5037551;28;20990;-73
2023/10/01 02:10:44;;;;;;;10.13;6.97;;;9.30;99.90;;;;;;5035712;28;20548;-71
2023/10/01 02:13:13;;;;;;;10.40;7.50;;;9.30;99.90;;;;;;5038878;28;20576;-72
2023/10/01 02:15:40;;;;;;;12.37;6.67;;;9.30;99.90;;;;;;5038730;28;20446;-72
2023/10/01 02:18:09;;;;;;;11.50;7.03;;;9.20;99.90;;;;;;5039620;28;20934;-72
2023/10/01 02:20:36;;;;;;;11.43;6.87;;;9.30;99.90;;;;;;5038184;28;20476;-72
2023/10/01 02:23:03;;;;;;;13.47;7.57;;;9.20;99.90;;;;;;5037562;28;20532;-72
2023/10/01 02:25:37;;;;;;;17.03;7.57;;;9.20;99.90;;;;;;5034682;28;20515;-72
2023/10/01 02:28:13;;;;;;;12.20;7.70;;;9.20;99.90;;;;;;5037262;28;20578;-72
2023/10/01 02:30:41;;;;;;;15.90;7.93;;;9.20;99.90;;;;;;5037161;28;20532;-72
2023/10/01 02:33:17;;;;;;;12.57;6.77;;;9.20;99.90;;;;;;5035567;28;20482;-72
2023/10/01 02:35:46;;;;;;;12.00;7.17;;;9.20;99.90;;;;;;5035596;28;21024;-72
2023/10/01 02:40:58;;;;;;;14.60;7.03;;;9.20;99.90;;;;;;5039842;28;20448;-72
2023/10/01 02:43:26;;;;;;;11.57;6.73;;;9.30;99.90;;;;;;5033514;28;20477;-72
2023/10/01 02:45:53;;;;;;;12.57;7.37;;;9.30;99.90;;;;;;5039481;28;20461;-72
2023/10/01 02:48:18;;;;;;;10.23;6.90;;;9.20;99.90;;;;;;5036671;28;21002;-72
2023/10/01 02:50:51;;;;;;;13.00;7.50;;;9.20;99.90;;;;;;5036099;28;20480;-72
2023/10/01 02:53:20;;;;;;;14.27;7.20;;;9.20;99.90;;;;;;5040713;28;20222;-72
2023/10/01 02:55:47;;;;;;;16.43;7.80;;;9.10;99.90;;;;;;5042200;28;20970;-72
2023/10/01 02:58:20;;;;;;;15.03;8.30;;;9.10;99.90;;;;;;5041033;28;20949;-72
2023/10/01 03:00:53;;;;;;;13.03;7.27;;;9.00;99.90;;;;;;5042641;28;20449;-72
2023/10/01 03:03:31;;;;;;;11.30;6.93;;;9.00;99.90;;;;;;5039242;28;20489;-72
2023/10/01 03:05:58;;;;;;;9.93;6.40;;;9.00;99.90;;;;;;5042403;28;20456;-72
2023/10/01 03:09:00;;;;;;;11.53;7.37;;;9.00;99.90;;;;;;5040203;28;21020;-72
2023/10/01 03:11:35;;;;;;;12.90;6.70;;;9.10;99.90;;;;;;5040321;28;20551;-72
2023/10/01 03:14:08;;;;;;;11.67;6.90;;;9.00;99.90;;;;;;5039632;28;20843;-72
2023/10/01 03:16:43;;;;;;;11.50;7.20;;;9.00;99.90;;;;;;5039816;28;21020;-72
2023/10/01 03:19:18;;;;;;;11.90;7.50;;;9.00;99.90;;;;;;5035553;28;20445;-72
2023/10/01 03:24:30;;;;;;;16.37;7.90;;;8.90;99.90;;;;;;5033303;28;20464;-72
2023/10/01 03:27:12;;;;;;;13.40;8.10;;;9.00;99.90;;;;;;5040450;28;20518;-72
2023/10/01 03:29:42;;;;;;;13.40;8.00;;;9.00;99.90;;;;;;5038403;28;20594;-72
2023/10/01 03:34:52;;;;;;;14.10;8.70;;;9.10;99.90;;;;;;5040347;28;20970;-74
2023/10/01 03:37:20;;;;;;;18.60;10.10;;;9.00;99.90;;;;;;5039216;28;20464;-72
2023/10/01 03:39:50;;;;;;;43.87;11.20;;;9.00;99.90;;;;;;5040069;28;20827;-72
2023/10/01 03:42:17;;;;;;;21.80;10.40;;;9.00;99.90;;;;;;5038966;28;21008;-73
2023/10/01 03:47:29;;;;;;;25.17;12.20;;;9.10;99.90;;;;;;5032570;28;20440;-72
2023/10/01 03:49:57;;;;;;;26.43;11.73;;;9.10;99.90;;;;;;5038265;28;20488;-72
2023/10/01 03:52:29;;;;;;;32.87;11.17;;;9.10;99.90;;;;;;5038281;28;20820;-72
2023/10/01 03:55:15;;;;;;;30.87;12.50;;;9.10;99.90;;;;;;5040930;28;20468;-73
2023/10/01 03:57:54;;;;;;;19.17;11.07;;;9.10;99.90;;;;;;5038954;28;20454;-72
2023/10/01 04:00:32;;;;;;;19.40;11.83;;;9.20;99.90;;;;;;5032434;28;20528;-72
2023/10/01 04:03:01;;;;;;;24.03;12.50;;;9.20;99.90;;;;;;5039703;28;20495;-72
2023/10/01 04:05:33;;;;;;;19.93;11.50;;;9.20;99.90;;;;;;5038197;28;20530;-71
2023/10/01 04:08:06;;;;;;;27.23;11.70;;;9.20;99.90;;;;;;5037703;28;20488;-72
2023/10/01 04:10:34;;;;;;;65.60;13.20;;;9.20;99.90;;;;;;5038025;28;20546;-74
2023/10/01 04:13:12;;;;;;;36.43;11.00;;;9.20;99.90;;;;;;5039137;28;20488;-73
2023/10/01 04:15:41;;;;;;;66.10;12.40;;;9.20;99.90;;;;;;5035927;28;20453;-72
2023/10/01 04:18:19;;;;;;;34.90;10.03;;;9.20;99.90;;;;;;5037523;28;20506;-72
2023/10/01 04:20:48;;;;;;;41.97;11.90;;;9.20;99.90;;;;;;5037841;28;20449;-72
2023/10/01 04:23:23;;;;;;;66.07;11.43;;;9.10;99.90;;;;;;5037526;28;20551;-72
2023/10/01 04:25:51;;;;;;;43.27;12.60;;;9.20;99.90;;;;;;5038042;28;20444;-72
2023/10/01 04:28:18;;;;;;;37.90;11.50;;;9.10;99.90;;;;;;5036835;28;20539;-72
2023/10/01 04:30:45;;;;;;;39.77;11.87;;;9.10;99.90;;;;;;5036313;28;20548;-72
2023/10/01 04:33:17;;;;;;;39.43;10.53;;;9.10;99.90;;;;;;5037636;28;21152;-72
2023/10/01 04:35:51;;;;;;;26.83;10.90;;;9.10;99.90;;;;;;5037064;28;20550;-73
2023/10/01 04:38:19;;;;;;;36.40;11.10;;;9.10;99.90;;;;;;5036986;28;20450;-73
2023/10/01 04:40:48;;;;;;;40.90;12.40;;;9.00;99.90;;;;;;5037140;28;20485;-72
2023/10/01 04:43:16;;;;;;;43.53;12.30;;;9.00;99.90;;;;;;5037041;28;20511;-74
2023/10/01 04:45:44;;;;;;;46.67;11.67;;;9.00;99.90;;;;;;5036299;28;20541;-71
2023/10/01 04:48:15;;;;;;;27.63;10.00;;;9.00;99.90;;;;;;5037827;28;20476;-73
2023/10/01 04:50:45;;;;;;;22.67;9.40;;;9.00;99.90;;;;;;5034433;28;20999;-72
2023/10/01 04:53:14;;;;;;;41.07;10.53;;;9.00;99.90;;;;;;5036349;28;20479;-72
2023/10/01 04:55:43;;;;;;;30.17;11.40;;;9.00;99.90;;;;;;5035926;28;20533;-72
2023/10/01 04:58:12;;;;;;;21.43;8.80;;;9.00;99.90;;;;;;5035961;28;20444;-72
2023/10/01 05:00:42;;;;;;;32.33;9.80;;;9.00;99.90;;;;;;5035434;28;20523;-72
2023/10/01 05:03:10;;;;;;;35.37;10.60;;;9.10;99.90;;;;;;5036782;28;20993;-72
2023/10/01 05:05:37;;;;;;;33.07;11.30;;;9.10;99.90;;;;;;5035506;28;20450;-72
2023/10/01 05:08:05;;;;;;;44.67;11.10;;;9.10;99.90;;;;;;5035666;28;20529;-72
2023/10/01 05:10:50;;;;;;;31.40;9.97;;;9.10;99.90;;;;;;5035400;28;20449;-71
2023/10/01 05:13:19;;;;;;;86.47;11.50;;;9.00;99.90;;;;;;5034731;28;20473;-72
2023/10/01 05:15:49;;;;;;;33.70;10.30;;;8.90;99.90;;;;;;5034654;28;20461;-72
2023/10/01 05:18:17;;;;;;;47.50;11.27;;;8.80;99.90;;;;;;5036142;28;20448;-72
2023/10/01 05:20:43;;;;;;;118.50;12.07;;;8.80;99.90;;;;;;5033416;28;20511;-72
2023/10/01 05:23:12;;;;;;;120.10;11.63;;;8.70;99.90;;;;;;5034563;28;20565;-71
2023/10/01 05:25:45;;;;;;;20.83;9.63;;;8.50;99.90;;;;;;5033754;28;20453;-71
2023/10/01 05:28:23;;;;;;;27.63;10.00;;;8.40;99.90;;;;;;5034688;28;21144;-71
2023/10/01 05:30:57;;;;;;;49.40;11.03;;;8.50;99.90;;;;;;5034069;28;20453;-70
2023/10/01 05:33:25;;;;;;;32.33;9.10;;;8.60;99.90;;;;;;5028003;28;20461;-71
2023/10/01 05:35:57;;;;;;;34.17;9.20;;;8.50;99.90;;;;;;5034745;28;20522;-71
2023/10/01 05:38:27;;;;;;;27.53;8.20;;;8.60;99.90;;;;;;5027412;28;20464;-71
2023/10/01 05:40:55;;;;;;;41.70;8.00;;;8.60;99.90;;;;;;5034956;28;20484;-71
2023/10/01 05:43:27;;;;;;;36.23;8.67;;;8.60;99.90;;;;;;5026064;28;20524;-71
2023/10/01 05:46:01;;;;;;;33.30;8.73;;;8.60;99.90;;;;;;5034838;28;20449;-70
2023/10/01 05:48:29;;;;;;;11.00;7.60;;;8.50;99.90;;;;;;5026171;28;20457;-71
2023/10/01 05:50:57;;;;;;;46.60;8.20;;;8.50;99.90;;;;;;5033638;28;20834;-71
2023/10/01 05:53:26;;;;;;;12.70;7.73;;;8.50;99.90;;;;;;5025528;28;20473;-70
2023/10/01 05:55:52;;;;;;;11.37;7.90;;;8.50;99.90;;;;;;5034270;28;20448;-71
2023/10/01 05:58:21;;;;;;;12.20;7.60;;;8.60;99.90;;;;;;5034042;28;20445;-70
2023/10/01 06:00:56;;;;;;;33.30;7.40;;;8.60;99.90;;;;;;5033013;28;20461;-71
2023/10/01 06:03:24;;;;;;;30.17;7.70;;;8.70;99.90;;;;;;5039415;28;20474;-71
2023/10/01 06:05:57;;;;;;;27.77;8.33;;;8.70;99.90;;;;;;5033063;28;20527;-71
2023/10/01 06:08:26;;;;;;;11.73;7.90;;;8.70;99.90;;;;;;5027360;28;20457;-71
2023/10/01 06:11:04;;;;;;;18.83;7.77;;;8.70;99.90;;;;;;5033548;28;20476;-71
2023/10/01 06:13:31;;;;;;;15.07;8.00;;;8.80;99.90;;;;;;5027047;28;20500;-71
2023/10/01 06:16:11;;;;;;;23.70;8.80;;;8.80;99.90;;;;;;5032714;28;20491;-71
2023/10/01 06:18:41;;;;;;;13.60;9.17;;;8.80;99.90;;;;;;5032203;28;20556;-72
2023/10/01 06:21:09;;;;;;;11.33;8.40;;;9.00;99.90;;;;;;5032417;28;20877;-71
2023/10/01 06:23:49;;;;;;;8.07;6.87;;;9.30;99.90;;;;;;5032201;28;20559;-72
2023/10/01 06:26:18;;;;;;;12.23;7.50;;;9.60;99.90;;;;;;5029725;28;21086;-71
2023/10/01 06:28:44;;;;;;;8.93;6.83;;;9.60;99.90;;;;;;5031867;28;20555;-71
2023/10/01 06:31:11;;;;;;;9.70;7.87;;;9.70;99.90;;;;;;5032723;28;20468;-71
2023/10/01 06:33:38;;;;;;;10.33;8.00;;;9.70;99.90;;;;;;5031380;28;20469;-72
2023/10/01 06:38:54;;;;;;;9.93;7.53;;;9.60;99.90;;;;;;5027450;28;20449;-72
2023/10/01 06:41:25;;;;;;;9.07;7.60;;;9.50;99.90;;;;;;5036217;28;20527;-72
2023/10/01 06:43:55;;;;;;;13.20;9.03;;;9.40;99.90;;;;;;5031614;28;20465;-71
2023/10/01 06:46:27;;;;;;;13.87;7.73;;;9.40;99.90;;;;;;5024434;28;20448;-72
2023/10/01 06:48:56;;;;;;;13.60;7.07;;;9.50;99.90;;;;;;5031298;28;20568;-71
2023/10/01 06:51:24;;;;;;;12.37;8.13;;;9.60;99.90;;;;;;5024411;28;20477;-71
2023/10/01 06:53:58;;;;;;;8.10;7.30;;;10.00;99.90;;;;;;5031402;28;20522;-72
2023/10/01 06:56:29;;;;;;;8.27;6.60;;;10.60;99.90;;;;;;5031959;28;20967;-71
2023/10/01 06:59:13;;;;;;;7.67;6.33;;;11.40;99.90;;;;;;5031409;28;20449;-72
2023/10/01 07:01:46;;;;;;;6.33;5.50;;;11.90;99.90;;;;;;5031035;28;20449;-72
2023/10/01 07:04:15;;;;;;;7.33;6.30;;;11.90;99.90;;;;;;5031407;28;20461;-70
2023/10/01 07:06:44;;;;;;;7.90;6.10;;;12.00;99.90;;;;;;5030984;28;20456;-70
2023/10/01 07:09:34;;;;;;;7.63;6.20;;;12.40;99.90;;;;;;5031157;28;20859;-71
2023/10/01 07:12:02;;;;;;;8.97;6.63;;;13.00;99.90;;;;;;5030923;28;20532;-71
2023/10/01 07:17:15;;;;;;;8.03;6.57;;;14.40;99.90;;;;;;5030691;28;20448;-70
2023/10/01 07:19:42;;;;;;;11.67;7.00;;;14.80;99.90;;;;;;5031174;28;20504;-71
2023/10/01 07:22:11;;;;;;;13.43;6.87;;;15.20;99.90;;;;;;5030224;28;20500;-71
2023/10/01 07:24:40;;;;;;;11.60;7.60;;;15.30;99.90;;;;;;5030562;28;20464;-71
2023/10/01 07:27:11;;;;;;;10.13;7.70;;;15.10;99.90;;;;;;5030305;28;20449;-71
2023/10/01 07:29:41;;;;;;;15.50;7.90;;;14.80;99.90;;;;;;5022883;28;20495;-71
2023/10/01 07:32:12;;;;;;;10.40;7.50;;;14.70;99.90;;;;;;5030212;28;20556;-71
2023/10/01 07:34:39;;;;;;;10.80;7.73;;;14.60;99.90;;;;;;5030917;28;20446;-71
2023/10/01 07:37:07;;;;;;;11.57;7.67;;;14.70;99.90;;;;;;5041120;28;20877;-71
2023/10/01 07:39:36;;;;;;;13.37;7.70;;;14.90;99.90;;;;;;5052823;28;20890;-71
2023/10/01 07:42:05;;;;;;;10.17;6.90;;;15.00;99.90;;;;;;5046545;28;20538;-71
2023/10/01 07:44:33;;;;;;;9.30;7.23;;;15.00;99.90;;;;;;5048358;28;20511;-71
2023/10/01 07:47:02;;;;;;;7.70;6.57;;;14.90;99.90;;;;;;5052957;28;20527;-72
2023/10/01 07:49:46;;;;;;;8.40;6.97;;;14.80;99.90;;;;;;5045211;28;21016;-70
2023/10/01 07:52:17;;;;;;;9.97;7.33;;;14.80;99.90;;;;;;5052650;28;20534;-72
2023/10/01 07:54:44;;;;;;;11.50;7.30;;;14.40;99.90;;;;;;5047905;28;20535;-71
2023/10/01 07:57:13;;;;;;;10.77;7.70;;;14.20;99.90;;;;;;5051837;28;20921;-71
2023/10/01 07:59:43;;;;;;;11.90;7.60;;;14.30;99.90;;;;;;5053407;28;20449;-71
2023/10/01 08:02:13;;;;;;;14.00;8.40;;;14.40;99.90;;;;;;5048791;28;20483;-71
2023/10/01 08:07:22;;;;;;;11.63;8.03;;;14.60;99.90;;;;;;5040754;28;21175;-71
2023/10/01 08:09:52;;;;;;;10.03;8.20;;;14.70;99.90;;;;;;5048751;28;20570;-71
2023/10/01 08:12:28;;;;;;;10.23;7.60;;;15.00;99.90;;;;;;5051016;28;20524;-69
2023/10/01 08:17:36;;;;;;;9.83;8.00;;;15.50;99.90;;;;;;5039762;28;20546;-69
2023/10/01 08:20:15;;;;;;;11.40;8.50;;;15.90;99.90;;;;;;5047892;28;20445;-69
2023/10/01 08:23:09;;;;;;;10.70;8.23;;;16.10;99.90;;;;;;5051083;28;20464;-71
2023/10/01 08:25:32;;;;;;;15.63;8.57;;;16.20;99.90;;;;;;5047154;28;20810;-70
2023/10/01 08:28:26;;;;;;;9.33;8.13;;;16.50;99.90;;;;;;5050482;28;20502;-71
2023/10/01 08:31:01;;;;;;;16.20;8.77;;;16.50;99.90;;;;;;5043798;28;21102;-70
2023/10/01 08:33:33;;;;;;;15.93;8.93;;;16.40;99.90;;;;;;5035019;28;20554;-69
2023/10/01 08:36:01;;;;;;;12.40;8.50;;;16.60;99.90;;;;;;5050302;28;20595;-69
2023/10/01 08:38:29;;;;;;;15.00;8.23;;;16.80;99.90;;;;;;5042559;28;20477;-69
2023/10/01 08:40:59;;;;;;;13.10;8.40;;;17.00;99.90;;;;;;5040034;28;20457;-69
2023/10/01 08:43:31;;;;;;;10.63;8.23;;;17.00;99.90;;;;;;5038531;28;20435;-69
2023/10/01 08:46:00;;;;;;;12.40;9.43;;;17.20;99.90;;;;;;5050921;28;20431;-68
2023/10/01 08:48:35;;;;;;;13.00;8.90;;;17.20;99.90;;;;;;5034151;28;20437;-68
2023/10/01 08:51:08;;;;;;;14.30;8.63;;;17.60;99.90;;;;;;5047278;28;20488;-69
2023/10/01 08:53:41;;;;;;;13.10;9.20;;;18.00;99.90;;;;;;5043210;28;20502;-69
2023/10/01 08:56:13;;;;;;;10.13;8.00;;;18.30;99.90;;;;;;5043182;28;20457;-68
2023/10/01 08:58:49;;;;;;;13.50;8.83;;;18.30;99.90;;;;;;5041632;28;20471;-69
2023/10/01 09:01:20;;;;;;;15.40;9.30;;;18.50;99.90;;;;;;5043154;28;20489;-68
2023/10/01 09:03:48;;;;;;;14.43;8.90;;;18.50;99.90;;;;;;5050163;28;20473;-69
2023/10/01 09:06:26;;;;;;;14.13;8.57;;;18.30;99.90;;;;;;5041212;28;20940;-69
2023/10/01 09:08:55;;;;;;;10.57;8.20;;;18.50;99.90;;;;;;5043604;28;20530;-69
2023/10/01 09:11:35;;;;;;;13.73;7.90;;;18.70;99.90;;;;;;5048476;28;20487;-68
2023/10/01 09:14:17;;;;;;;11.73;8.20;;;19.00;99.90;;;;;;5049069;28;20920;-68
2023/10/01 09:16:45;;;;;;;11.25;7.60;;;19.10;99.90;;;;;;5049103;28;20834;-68
2023/10/01 09:21:56;;;;;;;10.87;8.07;;;19.60;99.90;;;;;;5044245;28;21197;-71
2023/10/01 09:24:38;;;;;;;12.97;8.80;;;19.90;99.90;;;;;;5043883;28;20449;-70
2023/10/01 09:27:18;;;;;;;14.20;8.50;;;19.90;99.90;;;;;;5048230;28;20451;-69
2023/10/01 09:29:48;;;;;;;10.97;7.83;;;20.00;99.90;;;;;;5042691;28;21037;-69
2023/10/01 09:32:19;;;;;;;12.13;8.60;;;20.10;99.90;;;;;;5045479;28;20478;-70
2023/10/01 09:34:57;;;;;;;16.73;8.40;;;20.30;99.90;;;;;;5041220;28;20465;-70
2023/10/01 09:37:33;;;;;;;13.70;8.90;;;20.40;99.90;;;;;;5047860;28;20449;-69
2023/10/01 09:40:05;;;;;;;12.87;8.00;;;20.60;99.90;;;;;;5046148;28;20460;-69
2023/10/01 09:42:44;;;;;;;14.93;8.30;;;20.50;99.90;;;;;;5038877;28;20486;-70
2023/10/01 09:45:26;;;;;;;18.33;9.77;;;20.20;99.90;;;;;;5040413;28;20457;-69
2023/10/01 09:48:02;;;;;;;17.50;9.10;;;20.00;99.90;;;;;;5044452;28;20518;-69
2023/10/01 09:50:31;;;;;;;16.60;9.33;;;19.90;99.90;;;;;;5042563;28;20813;-70
2023/10/01 09:53:00;;;;;;;12.50;8.50;;;20.10;99.90;;;;;;5040364;28;21088;-69
2023/10/01 09:55:29;;;;;;;17.83;9.20;;;20.20;99.90;;;;;;5036187;28;20978;-69
2023/10/01 09:57:57;;;;;;;15.10;9.10;;;20.30;99.90;;;;;;5048259;28;20459;-70
2023/10/01 10:03:11;;;;;;;17.70;10.60;;;20.50;99.90;;;;;;5043062;28;20471;-70
2023/10/01 10:05:40;;;;;;;15.10;10.27;;;20.80;99.90;;;;;;5040664;28;20928;-69
2023/10/01 10:08:15;;;;;;;21.27;11.07;;;20.80;99.90;;;;;;5043954;28;20484;-69
2023/10/01 10:10:48;;;;;;;14.90;9.80;;;20.70;99.90;;;;;;5035279;28;20498;-69
2023/10/01 10:13:38;;;;;;;15.40;9.90;;;20.70;99.90;;;;;;5044025;28;20492;-68
2023/10/01 10:19:13;;;;;;;18.60;11.30;;;20.80;99.90;;;;;;5038426;28;20446;-70
2023/10/01 10:22:16;;;;;;;15.00;10.17;;;21.00;99.90;;;;;;5031542;28;20504;-69
2023/10/01 10:24:47;;;;;;;16.10;10.50;;;21.30;99.90;;;;;;5021656;28;20461;-69
2023/10/01 10:27:35;;;;;;;19.50;10.90;;;21.40;99.90;;;;;;5044468;28;20828;-71
2023/10/01 10:30:15;;;;;;;15.03;10.57;;;21.40;99.90;;;;;;5043492;28;20491;-70
2023/10/01 10:33:42;;;;;;;25.37;12.17;;;21.40;99.90;;;;;;5041012;28;20925;-69
2023/10/01 10:36:58;;;;;;;17.60;11.50;;;21.30;99.90;;;;;;5035325;28;20557;-69
2023/10/01 10:40:26;;;;;;;16.83;10.10;;;21.80;99.90;;;;;;5037745;28;20461;-69
2023/10/01 10:43:16;;;;;;;18.83;11.23;;;22.40;99.90;;;;;;5033926;28;20527;-69
2023/10/01 10:46:00;;;;;;;17.33;10.73;;;22.70;99.90;;;;;;5036096;28;20443;-69
2023/10/01 10:48:48;;;;;;;18.33;9.80;;;23.10;99.90;;;;;;5037179;28;20848;-68
2023/10/01 10:51:46;;;;;;;16.80;10.00;;;22.90;99.90;;;;;;5037715;28;20491;-68
2023/10/01 10:54:16;;;;;;;18.70;10.57;;;23.00;99.90;;;;;;5043559;28;20457;-68
2023/10/01 10:56:44;;;;;;;17.55;9.70;;;22.80;99.90;;;;;;5045817;28;20448;-68
2023/10/01 10:59:15;;;;;;;16.20;9.83;;;23.00;99.90;;;;;;5044230;28;20263;-68
2023/10/01 11:01:45;;;;;;;19.87;10.80;;;23.20;99.90;;;;;;5035083;28;21002;-68
2023/10/01 11:04:12;;;;;;;18.33;10.07;;;23.30;99.90;;;;;;5044300;28;20449;-68
2023/10/01 11:06:42;;;;;;;17.90;10.03;;;23.00;99.90;;;;;;5040170;28;20535;-68
2023/10/01 11:09:24;;;;;;;17.00;9.83;;;23.10;99.90;;;;;;5044190;28;20448;-69
2023/10/01 11:11:52;;;;;;;25.10;10.77;;;22.90;99.90;;;;;;5046302;28;20546;-68
2023/10/01 11:14:21;;;;;;;17.40;10.50;;;23.00;99.90;;;;;;5045923;28;20511;-69
2023/10/01 11:16:49;;;;;;;21.93;11.70;;;23.20;99.90;;;;;;5049220;28;20487;-68
2023/10/01 11:19:17;;;;;;;19.00;10.10;;;23.20;99.90;;;;;;5041354;28;20518;-69
2023/10/01 11:21:54;;;;;;;18.10;10.37;;;23.10;99.90;;;;;;5049189;28;20440;-69
2023/10/01 11:24:22;;;;;;;19.30;10.33;;;23.00;99.90;;;;;;5043258;28;20970;-69
2023/10/01 11:27:19;;;;;;;19.83;10.20;;;22.90;99.90;;;;;;5049475;28;20865;-69
2023/10/01 11:30:15;;;;;;;17.63;9.37;;;22.80;99.90;;;;;;5038982;28;20543;-69
2023/10/01 11:32:59;;;;;;;15.60;9.80;;;22.90;99.90;;;;;;5038517;28;20502;-70
2023/10/01 11:35:33;;;;;;;19.67;11.07;;;22.90;99.90;;;;;;5040717;28;20448;-68
2023/10/01 11:38:03;;;;;;;23.23;10.50;;;22.90;99.90;;;;;;5048487;28;20536;-68
2023/10/01 11:41:06;;;;;;;19.47;10.50;;;23.20;99.90;;;;;;5041853;28;20552;-68
2023/10/01 11:43:27;;;;;;;17.67;9.47;;;23.40;99.90;;;;;;5040283;28;20496;-68
2023/10/01 11:46:22;;;;;;;17.30;9.10;;;23.80;99.90;;;;;;5041801;28;20503;-68
2023/10/01 11:49:03;;;;;;;16.63;9.37;;;24.10;99.90;;;;;;5036094;28;20508;-68
2023/10/01 11:51:30;;;;;;;15.98;8.93;;;24.10;99.90;;;;;;5045234;28;20460;-68
2023/10/01 11:54:07;;;;;;;16.80;8.90;;;24.00;99.90;;;;;;5044717;28;20226;-69
2023/10/01 11:56:34;;;;;;;15.87;7.93;;;24.10;99.90;;;;;;5047348;28;20461;-70
2023/10/01 11:59:01;;;;;;;18.37;8.80;;;24.30;99.90;;;;;;5047319;28;20949;-69
2023/10/01 12:01:38;;;;;;;17.20;8.97;;;24.50;99.90;;;;;;5046283;28;20480;-69
2023/10/01 12:04:06;;;;;;;19.17;9.00;;;24.40;99.90;;;;;;5043534;28;20486;-68
2023/10/01 12:06:34;;;;;;;16.70;9.23;;;24.30;99.90;;;;;;5040766;28;20535;-68
2023/10/01 12:09:01;;;;;;;16.63;7.93;;;24.00;99.90;;;;;;5047210;28;20906;-68
2023/10/01 12:11:28;;;;;;;20.00;8.77;;;23.90;99.90;;;;;;5044800;28;20488;-67
2023/10/01 12:14:05;;;;;;;14.33;8.60;;;23.70;99.90;;;;;;5043615;28;20546;-69
2023/10/01 12:16:34;;;;;;;24.97;10.27;;;24.00;99.90;;;;;;5044066;28;20979;-69
2023/10/01 12:19:22;;;;;;;17.57;9.30;;;24.00;99.90;;;;;;5045259;28;20456;-69
2023/10/01 12:22:04;;;;;;;15.03;8.47;;;23.80;99.90;;;;;;5037971;28;21065;-69
2023/10/01 12:24:39;;;;;;;20.40;9.17;;;23.60;99.90;;;;;;5041293;28;20469;-69
2023/10/01 12:27:07;;;;;;;13.90;7.73;;;23.60;99.90;;;;;;5044160;28;20551;-69
2023/10/01 12:29:42;;;;;;;14.90;8.00;;;23.90;99.90;;;;;;5041944;28;20441;-69
2023/10/01 12:32:11;;;;;;;15.63;8.57;;;24.00;99.90;;;;;;5042611;28;20487;-69
2023/10/01 12:34:37;;;;;;;19.20;8.97;;;24.20;99.90;;;;;;5044685;28;20536;-68
2023/10/01 12:37:32;;;;;;;17.57;8.47;;;24.30;99.90;;;;;;5044784;28;20502;-69
2023/10/01 12:40:13;;;;;;;14.23;8.03;;;24.40;99.90;;;;;;5041225;28;20447;-69
2023/10/01 12:42:38;;;;;;;17.30;8.70;;;24.50;99.90;;;;;;5041253;28;20464;-69
2023/10/01 12:45:13;;;;;;;15.20;8.50;;;24.50;99.90;;;;;;5042480;28;20951;-69
2023/10/01 12:47:50;;;;;;;16.97;8.00;;;24.30;99.90;;;;;;5045355;28;20456;-69
2023/10/01 12:50:26;;;;;;;17.53;9.47;;;24.30;99.90;;;;;;5038148;28;20459;-69
2023/10/01 12:53:19;;;;;;;15.23;7.83;;;24.30;99.90;;;;;;5041850;28;20533;-69
2023/10/01 12:55:51;;;;;;;17.83;8.10;;;24.30;99.90;;;;;;5044516;28;20825;-69
2023/10/01 12:58:29;;;;;;;15.30;8.40;;;24.50;99.90;;;;;;5042490;28;20484;-70
2023/10/01 13:00:56;;;;;;;17.70;9.00;;;24.50;99.90;;;;;;5042268;28;20528;-69
2023/10/01 13:03:24;;;;;;;13.17;7.77;;;24.30;99.90;;;;;;5038866;28;20560;-70
2023/10/01 13:05:52;;;;;;;16.97;9.27;;;24.20;99.90;;;;;;5045316;28;20464;-71
2023/10/01 13:08:28;;;;;;;20.50;9.60;;;24.00;99.90;;;;;;5042185;28;20833;-69
2023/10/01 13:10:55;;;;;;;19.43;8.53;;;23.90;99.90;;;;;;5041179;28;20579;-69
2023/10/01 13:13:29;;;;;;;17.93;8.43;;;23.80;99.90;;;;;;5037918;28;21034;-69
2023/10/01 13:15:59;;;;;;;15.40;8.30;;;23.80;99.90;;;;;;5041462;28;20444;-69
2023/10/01 13:18:31;;;;;;;14.70;7.97;;;24.00;99.90;;;;;;5038954;28;20449;-69
2023/10/01 13:21:06;;;;;;;21.10;9.90;;;24.10;99.90;;;;;;5044630;28;20471;-69
2023/10/01 13:23:41;;;;;;;18.17;8.97;;;24.20;99.90;;;;;;5042524;28;20564;-70
2023/10/01 13:26:14;;;;;;;14.80;8.33;;;24.10;99.90;;;;;;5043159;28;20547;-69
2023/10/01 13:28:46;;;;;;;22.03;9.80;;;24.10;99.90;;;;;;5043613;28;20461;-69
2023/10/01 13:31:35;;;;;;;17.43;9.73;;;24.00;99.90;;;;;;5039578;28;20480;-70
2023/10/01 13:34:21;;;;;;;19.97;10.03;;;24.00;99.90;;;;;;5041100;28;20468;-70
2023/10/01 13:36:51;;;;;;;19.40;9.73;;;23.80;99.90;;;;;;5043909;28;20448;-70